Green Stars — V7VZ5 — position and weather

sailwx.info

Track history (hours):
 
Tides and Currents Weather Stations Pressure Air Temp Water Temp Dewpoint Dewpoint Depression Visibility Wind Speed Wind Dir Waves Ship Positions

Green Stars

Last reported at 2014-Jul-22 18:26 UTC. Time now 2014-Jul-23 08:08 UTC.
Position N 38°41' E 009°24'.

Length 182 m; draft 7 m.

Type: Tanker. MMSI: 538004247.

Date/timePositionNaut miles runAvg speedWind from/ knotsBaromVisibWave heightAir tempDewpointWater temp
2014-Jul-22 18:26N 38°41' E 009°24'2 2.1
2014-Jul-22 17:32N 38°43' E 009°23'2 2.2
2014-Jul-22 16:33N 38°45' E 009°22'3 2.6
2014-Jul-22 15:33N 38°48' E 009°21'7 6.8
2014-Jul-22 14:33N 38°50' E 009°30'6 1.9
2014-Jul-22 11:19N 38°47' E 009°37'1 1.3
2014-Jul-22 10:33N 38°46' E 009°36'1 1.1
2014-Jul-22 09:33N 38°46' E 009°34'5 1.6
2014-Jul-22 06:33N 38°46' E 009°28'2 1.6
2014-Jul-22 05:33N 38°46' E 009°26'2 1.5
2014-Jul-22 04:33N 38°45' E 009°24'1 1.3
2014-Jul-22 03:33N 38°45' E 009°22'1 1.2
2014-Jul-22 02:33N 38°45' E 009°21'1 1.1
2014-Jul-22 01:33N 38°44' E 009°20'1 0.9
2014-Jul-22 00:34N 38°44' E 009°18'1 0.7
2014-Jul-21 23:33N 38°44' E 009°18'1 0.6
2014-Jul-21 22:33N 38°45' E 009°17'6 6.3
2014-Jul-21 21:32N 38°39' E 009°20'8 2.6
2014-Jul-21 18:27N 38°31' E 009°21'2 2.1
2014-Jul-21 17:33N 38°32' E 009°20'2 2.1
2014-Jul-21 16:33N 38°34' E 009°19'6 2.1
2014-Jul-21 13:33N 38°39' E 009°14'2 1.7
2014-Jul-21 12:33N 38°41' E 009°13'2 1.5
2014-Jul-21 11:27N 38°42' E 009°12'3 3.3
2014-Jul-21 10:32N 38°43' E 009°09'1111.4
2014-Jul-21 09:33N 38°42' E 008°54'1513.0
2014-Jul-21 08:23N 38°42' E 008°35'1113.3
2014-Jul-21 07:33N 38°42' E 008°20'24813.7
2014-Jul-20 13:31N 42°18' E 005°42'1413.1
2014-Jul-20 12:29N 42°30' E 005°33'1111.9
2014-Jul-20 11:33N 42°40' E 005°25'1312.1
2014-Jul-20 10:30N 42°51' E 005°17'1212.0
2014-Jul-20 09:32N 43°01' E 005°09'1111.7
2014-Jul-20 08:33N 43°11' E 005°02'1211.7
2014-Jul-20 07:33N 43°22' E 004°58'2 2.2
2014-Jul-20 06:31N 43°24' E 004°60'0 0.0
2014-Jul-20 05:31N 43°24' E 004°60'0 0.0
2014-Jul-20 04:31N 43°24' E 004°60'0 0.0
2014-Jul-20 03:31N 43°24' E 004°60'0 0.0
2014-Jul-20 02:31N 43°24' E 004°60'0 0.0
2014-Jul-20 01:31N 43°24' E 004°60'0 0.0
2014-Jul-20 00:31N 43°24' E 004°60'0 0.0
2014-Jul-19 23:31N 43°24' E 004°60'0 0.0
2014-Jul-19 22:31N 43°24' E 004°60'0 0.0
2014-Jul-19 21:31N 43°24' E 004°60'0 0.0
2014-Jul-19 20:31N 43°24' E 004°60'0 0.0
2014-Jul-19 19:31N 43°24' E 004°60'0 0.0
2014-Jul-19 18:31N 43°24' E 004°60'0 0.0
2014-Jul-19 17:31N 43°24' E 004°60'0 0.0
2014-Jul-19 16:31N 43°24' E 004°60'0 0.0
2014-Jul-19 15:31N 43°24' E 004°60'0 0.0
2014-Jul-19 14:31N 43°24' E 004°60'0 0.0
2014-Jul-19 13:31N 43°24' E 004°60'0 0.0
2014-Jul-19 12:31N 43°24' E 004°60'0 0.0
2014-Jul-19 11:31N 43°24' E 004°60'0 0.0
2014-Jul-19 10:31N 43°24' E 004°60'0 0.0
2014-Jul-19 09:31N 43°24' E 004°60'0 0.0
2014-Jul-19 08:31N 43°24' E 004°60'0 0.0
2014-Jul-19 07:31N 43°24' E 004°60'0 0.0
2014-Jul-19 06:31N 43°24' E 004°60'0 0.0
2014-Jul-19 05:31N 43°24' E 004°60'0 0.0
2014-Jul-19 04:31N 43°24' E 004°60'0 0.0
2014-Jul-19 03:28N 43°24' E 004°60'0 0.0
2014-Jul-19 02:31N 43°24' E 004°60'0 0.0
2014-Jul-19 01:31N 43°24' E 004°60'0 0.0
2014-Jul-19 00:31N 43°24' E 004°60'0 0.0
2014-Jul-18 23:31N 43°24' E 004°60'0 0.0
2014-Jul-18 22:31N 43°24' E 004°60'0 0.0
2014-Jul-18 21:31N 43°24' E 004°60'0 0.0
2014-Jul-18 20:31N 43°24' E 004°60'0 0.0
2014-Jul-18 19:31N 43°24' E 004°60'0 0.0
2014-Jul-18 18:31N 43°24' E 004°60'0 0.0
2014-Jul-18 17:31N 43°24' E 004°60'0 0.0
2014-Jul-18 16:31N 43°24' E 004°60'0 0.0
2014-Jul-18 15:31N 43°24' E 004°60'0 0.0
2014-Jul-18 14:31N 43°24' E 004°60'0 0.0
2014-Jul-18 13:31N 43°24' E 004°60'0 0.3
2014-Jul-18 12:33N 43°24' E 004°59'2 1.6
2014-Jul-18 11:31N 43°23' E 004°57'0 0.0
2014-Jul-18 10:31N 43°23' E 004°57'0 0.0
2014-Jul-18 09:31N 43°23' E 004°57'0 0.0
2014-Jul-18 08:31N 43°23' E 004°57'1 1.0
2014-Jul-18 07:33N 43°23' E 004°58'8 8.4
2014-Jul-18 06:33N 43°15' E 005°02'8 7.8
2014-Jul-18 05:33N 43°07' E 005°04'1413.9
2014-Jul-18 04:32N 42°53' E 005°09'1212.4
2014-Jul-18 03:33N 42°42' E 005°14'1313.4
2014-Jul-18 02:33N 42°30' E 005°21'1413.8
2014-Jul-18 01:33N 42°17' E 005°28'1413.9
2014-Jul-18 00:33N 42°04' E 005°34'1413.6
2014-Jul-17 23:33N 41°51' E 005°40'1413.5
2014-Jul-17 22:33N 41°38' E 005°46'1413.6
2014-Jul-17 21:33N 41°25' E 005°53'1413.5
2014-Jul-17 20:33N 41°13' E 005°59'1313.4
2014-Jul-17 19:33N 41°00' E 006°05'1513.1
2014-Jul-17 18:24N 40°46' E 006°12'1313.2
2014-Jul-17 17:26N 40°34' E 006°18'1213.2
2014-Jul-17 16:32N 40°23' E 006°23'1313.0
2014-Jul-17 15:33N 40°11' E 006°29'1312.7
2014-Jul-17 14:33N 39°59' E 006°35'16512.4
2014-Jul-17 01:15N 38°16' E 009°22'22212.4
2014-Jul-16 07:20N 36°41' E 013°34'1013.2
2014-Jul-16 06:33N 36°37' E 013°46'1313.1
2014-Jul-16 05:33N 36°33' E 014°02'1313.0
2014-Jul-16 04:33N 36°29' E 014°17'1312.9
2014-Jul-16 03:33N 36°25' E 014°33'43212.2
2014-Jul-14 16:10N 36°32' E 023°30'913.0
2014-Jul-14 15:27N 36°40' E 023°36'3012.9
2014-Jul-14 13:07N 37°07' E 023°53'1113.1
2014-Jul-14 12:18N 37°17' E 023°58'1212.0
2014-Jul-14 11:18N 37°27' E 024°06'2 1.9
2014-Jul-14 10:30N 37°28' E 024°07'5 5.0
2014-Jul-14 09:28N 37°33' E 024°09'15312.8
2014-Jul-13 21:32N 39°46' E 025°46'1713.9
2014-Jul-13 20:21N 40°00' E 025°58'1013.2
2014-Jul-13 19:33N 40°02' E 026°11'1310.6
2014-Jul-13 18:21N 40°11' E 026°22'1311.5
2014-Jul-13 17:15N 40°19' E 026°36'911.0
2014-Jul-13 16:25N 40°26' E 026°44'5 4.5
2014-Jul-13 15:14N 40°28' E 026°50'5 7.0
2014-Jul-13 14:31N 40°25' E 026°56'  
Track history (hours):
 
Tides and Currents Weather Stations Pressure Air Temp Water Temp Dewpoint Dewpoint Depression Visibility Wind Speed Wind Dir Waves Ship Positions

Green Stars

Last reported at 2014-Jul-22 18:26 UTC. Time now 2014-Jul-23 08:08 UTC.
Position N 38°41' E 009°24'.

Length 182 m; draft 7 m.

Type: Tanker. MMSI: 538004247.

Date/timePositionNaut miles runAvg speedWind from/ knotsBaromVisibWave heightAir tempDewpointWater temp
2014-Jul-22 18:26N 38°41' E 009°24'2 2.1
2014-Jul-22 17:32N 38°43' E 009°23'2 2.2
2014-Jul-22 16:33N 38°45' E 009°22'3 2.6
2014-Jul-22 15:33N 38°48' E 009°21'7 6.8
2014-Jul-22 14:33N 38°50' E 009°30'6 1.9
2014-Jul-22 11:19N 38°47' E 009°37'1 1.3
2014-Jul-22 10:33N 38°46' E 009°36'1 1.1
2014-Jul-22 09:33N 38°46' E 009°34'5 1.6
2014-Jul-22 06:33N 38°46' E 009°28'2 1.6
2014-Jul-22 05:33N 38°46' E 009°26'2 1.5
2014-Jul-22 04:33N 38°45' E 009°24'1 1.3
2014-Jul-22 03:33N 38°45' E 009°22'1 1.2
2014-Jul-22 02:33N 38°45' E 009°21'1 1.1
2014-Jul-22 01:33N 38°44' E 009°20'1 0.9
2014-Jul-22 00:34N 38°44' E 009°18'1 0.7
2014-Jul-21 23:33N 38°44' E 009°18'1 0.6
2014-Jul-21 22:33N 38°45' E 009°17'6 6.3
2014-Jul-21 21:32N 38°39' E 009°20'8 2.6
2014-Jul-21 18:27N 38°31' E 009°21'2 2.1
2014-Jul-21 17:33N 38°32' E 009°20'2 2.1
2014-Jul-21 16:33N 38°34' E 009°19'6 2.1
2014-Jul-21 13:33N 38°39' E 009°14'2 1.7
2014-Jul-21 12:33N 38°41' E 009°13'2 1.5
2014-Jul-21 11:27N 38°42' E 009°12'3 3.3
2014-Jul-21 10:32N 38°43' E 009°09'1111.4
2014-Jul-21 09:33N 38°42' E 008°54'1513.0
2014-Jul-21 08:23N 38°42' E 008°35'1113.3
2014-Jul-21 07:33N 38°42' E 008°20'24813.7
2014-Jul-20 13:31N 42°18' E 005°42'1413.1
2014-Jul-20 12:29N 42°30' E 005°33'1111.9
2014-Jul-20 11:33N 42°40' E 005°25'1312.1
2014-Jul-20 10:30N 42°51' E 005°17'1212.0
2014-Jul-20 09:32N 43°01' E 005°09'1111.7
2014-Jul-20 08:33N 43°11' E 005°02'1211.7
2014-Jul-20 07:33N 43°22' E 004°58'2 2.2
2014-Jul-20 06:31N 43°24' E 004°60'0 0.0
2014-Jul-20 05:31N 43°24' E 004°60'0 0.0
2014-Jul-20 04:31N 43°24' E 004°60'0 0.0
2014-Jul-20 03:31N 43°24' E 004°60'0 0.0
2014-Jul-20 02:31N 43°24' E 004°60'0 0.0
2014-Jul-20 01:31N 43°24' E 004°60'0 0.0
2014-Jul-20 00:31N 43°24' E 004°60'0 0.0
2014-Jul-19 23:31N 43°24' E 004°60'0 0.0
2014-Jul-19 22:31N 43°24' E 004°60'0 0.0
2014-Jul-19 21:31N 43°24' E 004°60'0 0.0
2014-Jul-19 20:31N 43°24' E 004°60'0 0.0
2014-Jul-19 19:31N 43°24' E 004°60'0 0.0
2014-Jul-19 18:31N 43°24' E 004°60'0 0.0
2014-Jul-19 17:31N 43°24' E 004°60'0 0.0
2014-Jul-19 16:31N 43°24' E 004°60'0 0.0
2014-Jul-19 15:31N 43°24' E 004°60'0 0.0
2014-Jul-19 14:31N 43°24' E 004°60'0 0.0
2014-Jul-19 13:31N 43°24' E 004°60'0 0.0
2014-Jul-19 12:31N 43°24' E 004°60'0 0.0
2014-Jul-19 11:31N 43°24' E 004°60'0 0.0
2014-Jul-19 10:31N 43°24' E 004°60'0 0.0
2014-Jul-19 09:31N 43°24' E 004°60'0 0.0
2014-Jul-19 08:31N 43°24' E 004°60'0 0.0
2014-Jul-19 07:31N 43°24' E 004°60'0 0.0
2014-Jul-19 06:31N 43°24' E 004°60'0 0.0
2014-Jul-19 05:31N 43°24' E 004°60'0 0.0
2014-Jul-19 04:31N 43°24' E 004°60'0 0.0
2014-Jul-19 03:28N 43°24' E 004°60'0 0.0
2014-Jul-19 02:31N 43°24' E 004°60'0 0.0
2014-Jul-19 01:31N 43°24' E 004°60'0 0.0
2014-Jul-19 00:31N 43°24' E 004°60'0 0.0
2014-Jul-18 23:31N 43°24' E 004°60'0 0.0
2014-Jul-18 22:31N 43°24' E 004°60'0 0.0
2014-Jul-18 21:31N 43°24' E 004°60'0 0.0
2014-Jul-18 20:31N 43°24' E 004°60'0 0.0
2014-Jul-18 19:31N 43°24' E 004°60'0 0.0
2014-Jul-18 18:31N 43°24' E 004°60'0 0.0
2014-Jul-18 17:31N 43°24' E 004°60'0 0.0
2014-Jul-18 16:31N 43°24' E 004°60'0 0.0
2014-Jul-18 15:31N 43°24' E 004°60'0 0.0
2014-Jul-18 14:31N 43°24' E 004°60'0 0.0
2014-Jul-18 13:31N 43°24' E 004°60'0 0.3
2014-Jul-18 12:33N 43°24' E 004°59'2 1.6
2014-Jul-18 11:31N 43°23' E 004°57'0 0.0
2014-Jul-18 10:31N 43°23' E 004°57'0 0.0
2014-Jul-18 09:31N 43°23' E 004°57'0 0.0
2014-Jul-18 08:31N 43°23' E 004°57'1 1.0
2014-Jul-18 07:33N 43°23' E 004°58'8 8.4
2014-Jul-18 06:33N 43°15' E 005°02'8 7.8
2014-Jul-18 05:33N 43°07' E 005°04'1413.9
2014-Jul-18 04:32N 42°53' E 005°09'1212.4
2014-Jul-18 03:33N 42°42' E 005°14'1313.4
2014-Jul-18 02:33N 42°30' E 005°21'1413.8
2014-Jul-18 01:33N 42°17' E 005°28'1413.9
2014-Jul-18 00:33N 42°04' E 005°34'1413.6
2014-Jul-17 23:33N 41°51' E 005°40'1413.5
2014-Jul-17 22:33N 41°38' E 005°46'1413.6
2014-Jul-17 21:33N 41°25' E 005°53'1413.5
2014-Jul-17 20:33N 41°13' E 005°59'1313.4
2014-Jul-17 19:33N 41°00' E 006°05'1513.1
2014-Jul-17 18:24N 40°46' E 006°12'1313.2
2014-Jul-17 17:26N 40°34' E 006°18'1213.2
2014-Jul-17 16:32N 40°23' E 006°23'1313.0
2014-Jul-17 15:33N 40°11' E 006°29'1312.7
2014-Jul-17 14:33N 39°59' E 006°35'16512.4
2014-Jul-17 01:15N 38°16' E 009°22'22212.4
2014-Jul-16 07:20N 36°41' E 013°34'1013.2
2014-Jul-16 06:33N 36°37' E 013°46'1313.1
2014-Jul-16 05:33N 36°33' E 014°02'1313.0
2014-Jul-16 04:33N 36°29' E 014°17'1312.9
2014-Jul-16 03:33N 36°25' E 014°33'43212.2
2014-Jul-14 16:10N 36°32' E 023°30'913.0
2014-Jul-14 15:27N 36°40' E 023°36'3012.9
2014-Jul-14 13:07N 37°07' E 023°53'1113.1
2014-Jul-14 12:18N 37°17' E 023°58'1212.0
2014-Jul-14 11:18N 37°27' E 024°06'2 1.9
2014-Jul-14 10:30N 37°28' E 024°07'5 5.0
2014-Jul-14 09:28N 37°33' E 024°09'15312.8
2014-Jul-13 21:32N 39°46' E 025°46'1713.9
2014-Jul-13 20:21N 40°00' E 025°58'1013.2
2014-Jul-13 19:33N 40°02' E 026°11'1310.6
2014-Jul-13 18:21N 40°11' E 026°22'1311.5
2014-Jul-13 17:15N 40°19' E 026°36'911.0
2014-Jul-13 16:25N 40°26' E 026°44'5 4.5
2014-Jul-13 15:14N 40°28' E 026°50'5 7.0
2014-Jul-13 14:31N 40°25' E 026°56'  

Dump ship's entire track history